Northfield, MN

8:04 AM CST on November 24, 2014 (GMT -0600)
Airlake | Change Station
CLOSE
Current Station
Airport
Location: Lakeville,
Elevation: 961 ft
Nearby Weather Stations

Elev 961 ft 44.63 °N, 93.23 °W | Updated 18 minutes ago

Overcast
Overcast
21 °F
Feels Like 8 °F
N
14
Wind Variable Wind from WNW
Gusts 22 mph

Today
High -- | Low -- °F
--% Chance of Precip.
Yesterday
High -- | Low -- °F
Precip. -- in
7:20 AM 4:37 PM
Waxing Crescent, 5% visible
Pressure 29.38 in
Visibility 5.0 miles
Clouds Overcast 1100 ft
Windchill 8 °F
Dew Point 19 °F
Humidity 93%
Rainfall 0.00 in
Snow Depth Not available.
UV 0 out of 12
Pollen .10 out of 12
Air Quality Not available.
Flu Activity Not available.
METAR KLVN 241346Z AUTO 29012G19KT 5SM BR OVC011 M06/M07 A2938 RMK AO2

More Conditions Fewer Conditions

Pressure 29.38 in
Visibility 5.0 miles
Clouds Overcast 1100 ft
Windchill 8 °F
Dew Point 19 °F
Humidity 93%
Rainfall 0.00 in
Snow Depth Not available.
UV 0 out of 12
Pollen .10 out of 12
Air Quality Not available.
Flu Activity Not available.
METAR KLVN 241346Z AUTO 29012G19KT 5SM BR OVC011 M06/M07 A2938 RMK AO2

More Conditions Fewer Conditions

10-Day Weather Forecast

Almanac

Astronomy

Nov. 24, 2014 Rise Set
Actual Time
Civil Twilight
Nautical Twilight
Astronomical Twilight
Moon
Length of Visible Light
Length of Day
Tomorrow will be .
, % of the Moon is Illuminated

Today's Extremes

State Highs State Lows

Community

WunderPhotos

Upload Photos

1,773,332 photos uploaded!

WunderBlogs® & News

Nearby

Air Quality

  Air Quality AQ Index Pollutant
Not available.

Snow Depth

Station Depth Elevation

Earthquake Activity

City Distance Mag. Time & Date
Minimum magnitude displayed is 2.5.

Coastal Water Temperatures

Place Temperature

Nearby Weather Stations